createdAt,value
2022-09-26T09:03:51.621Z,99289.97
2022-09-26T09:07:05.199Z,99304.41
2022-09-26T09:10:14.883Z,99314.28
2022-09-26T09:13:36.982Z,99318.06
2022-09-26T09:17:20.902Z,99303.94
2022-09-26T09:20:58.156Z,99318.94
2022-09-26T09:24:27.557Z,99303.06
2022-09-26T09:28:01.211Z,99300.06
2022-09-26T09:31:11.454Z,99298.69
2022-09-26T09:34:41.054Z,99290.09
2022-09-26T09:38:17.097Z,99298.28
2022-09-26T09:41:38.559Z,99284.28
2022-09-26T09:45:01.596Z,99276.50
2022-09-26T09:48:04.105Z,99276.44
2022-09-26T09:51:15.546Z,99272.13
2022-09-26T09:54:40.112Z,99266.66
2022-09-26T09:58:14.829Z,99263.16
2022-09-26T10:01:32.409Z,99256.16
2022-09-26T10:04:44.217Z,99255.66
2022-09-26T10:07:48.525Z,99258.53
2022-09-26T10:11:24.185Z,99268.19
2022-09-26T10:15:03.331Z,99255.75
2022-09-26T10:18:27.077Z,99250.94
2022-09-26T10:21:48.635Z,99252.78
2022-09-26T10:24:52.968Z,99269.53
2022-09-26T10:27:58.402Z,99262.44
2022-09-26T10:31:10.006Z,99266.03
2022-09-26T10:34:41.546Z,99257.22
2022-09-26T10:37:57.800Z,99261.44
2022-09-26T10:41:01.841Z,99262.16
2022-09-26T10:44:22.023Z,99265.56
2022-09-26T10:47:46.184Z,99261.66
2022-09-26T10:51:46.782Z,99266.50
2022-09-26T10:55:04.899Z,99263.97
2022-09-26T10:58:13.739Z,99280.69
2022-09-26T11:01:22.506Z,99278.88
2022-09-26T11:04:53.131Z,99277.84
2022-09-26T11:08:19.031Z,99273.94
2022-09-26T11:11:42.861Z,99281.53
2022-09-26T11:14:45.869Z,99287.91
2022-09-26T11:17:52.971Z,99279.63
2022-09-26T11:20:57.908Z,99302.78
2022-09-26T11:24:14.576Z,99294.13
2022-09-26T11:27:24.719Z,99286.06
2022-09-26T11:30:28.835Z,99274.75
2022-09-26T11:33:37.447Z,99269.84
2022-09-26T11:37:16.729Z,99272.34
2022-09-26T11:40:51.858Z,99270.16
2022-09-26T11:44:10.468Z,99255.69
2022-09-26T11:47:44.981Z,99270.81
2022-09-26T11:51:22.970Z,99275.63
2022-09-26T11:54:51.516Z,99272.63
2022-09-26T11:58:06.553Z,99269.56
2022-09-26T12:01:38.248Z,99277.38
2022-09-26T12:04:45.313Z,99282.00
2022-09-26T12:08:11.494Z,99273.53
2022-09-26T12:11:25.960Z,99266.06
2022-09-26T12:14:36.948Z,99253.16
2022-09-26T12:17:52.535Z,99239.34
2022-09-26T12:21:07.747Z,99241.69
2022-09-26T12:24:28.058Z,99221.22
2022-09-26T12:27:58.621Z,99205.81
2022-09-26T12:31:12.461Z,99207.72
2022-09-26T12:34:43.836Z,99211.53
2022-09-26T12:38:24.411Z,99221.06
2022-09-26T12:42:05.498Z,99208.69
2022-09-26T12:45:55.411Z,99202.41
2022-09-26T12:49:27.927Z,99203.88
2022-09-26T12:52:42.250Z,99202.47
2022-09-26T12:55:53.661Z,99194.47
2022-09-26T12:58:55.850Z,99181.66
2022-09-26T13:02:17.166Z,99182.09
2022-09-26T13:05:51.932Z,99188.09
2022-09-26T13:09:09.675Z,99194.91
2022-09-26T13:12:40.757Z,99200.34
2022-09-26T13:16:11.287Z,99191.97
2022-09-26T13:19:34.910Z,99197.69
2022-09-26T13:22:50.844Z,99193.81
2022-09-26T13:25:54.460Z,99194.44
2022-09-26T13:29:25.738Z,99187.81
2022-09-26T13:32:41.985Z,99182.63
2022-09-26T13:35:47.865Z,99179.84
2022-09-26T13:39:03.735Z,99197.81
2022-09-26T13:42:45.181Z,99194.59
2022-09-26T13:46:00.625Z,99197.63
2022-09-26T13:49:25.190Z,99199.81
2022-09-26T13:52:40.329Z,99197.31
2022-09-26T13:55:43.573Z,99199.53
2022-09-26T13:58:46.658Z,99194.66
2022-09-26T14:02:18.044Z,99199.34
2022-09-26T14:05:23.154Z,99195.03
2022-09-26T14:08:46.547Z,99192.06
2022-09-26T14:11:55.259Z,99190.53
2022-09-26T14:15:24.721Z,99173.66
2022-09-26T14:18:47.426Z,99190.75
2022-09-26T14:22:26.490Z,99178.94
2022-09-26T14:25:47.597Z,99171.84
2022-09-26T14:28:52.960Z,99166.34
2022-09-26T14:32:04.504Z,99141.72
2022-09-26T14:35:21.037Z,99141.50
2022-09-26T14:38:23.896Z,99143.88
2022-09-26T14:41:31.724Z,99130.78
2022-09-26T14:44:37.253Z,99141.09
2022-09-26T14:47:49.231Z,99139.69
2022-09-26T14:50:57.682Z,99137.50
2022-09-26T14:54:14.157Z,99145.00
2022-09-26T14:57:24.383Z,99135.09
2022-09-26T15:00:40.718Z,99147.19
2022-09-26T15:03:43.994Z,99145.88
2022-09-26T15:06:55.130Z,99141.50
2022-09-26T15:10:20.662Z,99139.91
2022-09-26T15:13:25.440Z,99142.59
2022-09-26T15:16:34.674Z,99128.09
2022-09-26T15:19:42.764Z,99121.94
2022-09-26T15:22:45.917Z,99116.94
2022-09-26T15:25:48.256Z,99121.53
2022-09-26T15:28:52.141Z,99122.97
2022-09-26T15:31:56.025Z,99114.50
2022-09-26T15:35:00.806Z,99106.00
2022-09-26T15:38:12.903Z,99119.19
2022-09-26T15:41:39.248Z,99109.69
2022-09-26T15:44:53.962Z,99114.69
2022-09-26T15:47:58.849Z,99109.28
2022-09-26T15:51:28.259Z,99112.25
2022-09-26T15:54:32.245Z,99110.94
2022-09-26T15:57:34.709Z,99121.28
2022-09-26T16:00:38.042Z,99112.19
2022-09-26T16:03:47.291Z,99125.06
2022-09-26T16:07:16.682Z,99102.25
2022-09-26T16:10:29.831Z,99119.22
2022-09-26T16:13:36.410Z,99114.78
2022-09-26T16:16:38.869Z,99115.94
2022-09-26T16:19:48.049Z,99116.25
2022-09-26T16:23:00.388Z,99124.09
2022-09-26T16:26:24.109Z,99122.06
2022-09-26T16:29:34.974Z,99119.03
2022-09-26T16:32:37.437Z,99112.59
2022-09-26T16:35:47.363Z,99112.25
2022-09-26T16:38:57.433Z,99122.84
2022-09-26T16:42:07.656Z,99128.47
2022-09-26T16:45:13.995Z,99123.13
2022-09-26T16:48:37.630Z,99127.03
2022-09-26T16:51:41.131Z,99122.94
2022-09-26T16:54:43.705Z,99123.81
2022-09-26T16:57:55.007Z,99120.47
2022-09-26T17:01:15.939Z,99115.16
2022-09-26T17:04:20.457Z,99113.66
2022-09-26T17:07:24.070Z,99108.84
2022-09-26T17:10:26.696Z,99126.28
2022-09-26T17:13:32.982Z,99114.09
2022-09-26T17:16:35.817Z,99120.28
2022-09-26T17:19:39.796Z,99105.50
2022-09-26T17:22:42.192Z,99125.53
2022-09-26T17:25:48.600Z,99127.16
2022-09-26T17:28:53.320Z,99128.53
2022-09-26T17:31:56.473Z,99146.00
2022-09-26T17:35:01.866Z,99140.16
2022-09-26T17:38:04.141Z,99133.50
2022-09-26T17:41:06.700Z,99133.56
2022-09-26T17:44:09.060Z,99133.63
2022-09-26T17:47:11.827Z,99118.38
2022-09-26T17:50:24.394Z,99124.66
2022-09-26T17:53:32.652Z,99113.97
2022-09-26T17:56:35.149Z,99112.41
2022-09-26T17:59:42.248Z,99126.94
2022-09-26T18:02:46.981Z,99121.88
2022-09-26T18:05:49.863Z,99124.84
2022-09-26T18:08:54.909Z,99111.72
2022-09-26T18:12:02.982Z,99129.38
2022-09-26T18:15:05.812Z,99125.38
2022-09-26T18:18:19.350Z,99135.06
2022-09-26T18:21:24.243Z,99126.19
2022-09-26T18:24:28.824Z,99131.88
2022-09-26T18:27:33.155Z,99132.13
2022-09-26T18:30:35.610Z,99125.69
2022-09-26T18:33:38.263Z,99113.97
2022-09-26T18:36:40.755Z,99111.00
2022-09-26T18:39:43.014Z,99116.34
2022-09-26T18:42:45.502Z,99120.41
2022-09-26T18:45:47.960Z,99112.16
2022-09-26T18:48:50.780Z,99121.72
2022-09-26T18:51:53.159Z,99126.53
2022-09-26T18:55:14.341Z,99128.97
2022-09-26T18:58:24.142Z,99120.94
2022-09-26T19:01:38.339Z,99122.34
2022-09-26T19:04:40.821Z,99108.69
2022-09-26T19:07:44.915Z,99119.03
2022-09-26T19:10:47.261Z,99127.06
2022-09-26T19:13:54.382Z,99133.44
2022-09-26T19:16:57.768Z,99130.31
2022-09-26T19:20:00.188Z,99134.31
2022-09-26T19:23:02.577Z,99128.97
2022-09-26T19:26:05.767Z,99134.88
2022-09-26T19:29:13.845Z,99141.28
2022-09-26T19:32:22.442Z,99136.16
2022-09-26T19:35:36.282Z,99141.22
2022-09-26T19:38:38.568Z,99131.88
2022-09-26T19:41:41.110Z,99152.81
2022-09-26T19:44:43.488Z,99146.91
2022-09-26T19:47:47.674Z,99145.28
2022-09-26T19:50:52.508Z,99136.41
2022-09-26T19:53:54.966Z,99127.34
2022-09-26T19:56:57.472Z,99126.06
2022-09-26T19:59:59.826Z,99119.13
2022-09-26T20:03:02.188Z,99110.84
2022-09-26T20:06:15.344Z,99129.88
2022-09-26T20:09:19.271Z,99130.63
2022-09-26T20:12:21.576Z,99135.47
2022-09-26T20:15:24.253Z,99133.34
2022-09-26T20:18:26.585Z,99125.50
2022-09-26T20:21:29.513Z,99132.69
2022-09-26T20:24:33.558Z,99121.38
2022-09-26T20:27:35.875Z,99128.06
2022-09-26T20:30:54.567Z,99111.78
2022-09-26T20:34:00.120Z,99121.97
2022-09-26T20:37:03.113Z,99124.41
2022-09-26T20:40:27.186Z,99116.09
2022-09-26T20:43:35.540Z,99117.22
2022-09-26T20:46:50.697Z,99133.31
2022-09-26T20:49:56.983Z,99122.88
2022-09-26T20:52:59.878Z,99120.44
2022-09-26T20:56:03.961Z,99119.13
2022-09-26T20:59:06.775Z,99129.84
2022-09-26T21:02:32.548Z,99127.69
2022-09-26T21:05:34.981Z,99117.81
2022-09-26T21:08:37.447Z,99120.53
2022-09-26T21:11:41.725Z,99117.34
2022-09-26T21:14:44.743Z,99131.28
2022-09-26T21:17:49.553Z,99121.91
2022-09-26T21:20:52.836Z,99102.31
2022-09-26T21:24:19.515Z,99111.97
2022-09-26T21:27:24.455Z,99106.88
2022-09-26T21:30:26.964Z,99094.84
2022-09-26T21:33:32.413Z,99103.69
2022-09-26T21:36:37.697Z,99111.47
2022-09-26T21:39:40.490Z,99091.63
2022-09-26T21:42:46.902Z,99078.03
2022-09-26T21:45:52.478Z,99076.41
2022-09-26T21:48:55.635Z,99068.63
2022-09-26T21:52:12.007Z,99067.00
2022-09-26T21:55:20.697Z,99084.09
2022-09-26T21:58:28.142Z,99083.03
2022-09-26T22:01:30.424Z,99074.75
2022-09-26T22:04:32.998Z,99070.16
2022-09-26T22:07:35.803Z,99072.56
2022-09-26T22:10:38.414Z,99078.13
2022-09-26T22:13:40.733Z,99080.31
2022-09-26T22:16:43.319Z,99064.53
2022-09-26T22:19:45.950Z,99058.88
2022-09-26T22:22:48.773Z,99067.72
2022-09-26T22:25:51.394Z,99064.78
2022-09-26T22:28:54.035Z,99058.34
2022-09-26T22:31:56.442Z,99046.50
2022-09-26T22:34:58.937Z,99044.03
2022-09-26T22:38:01.271Z,99034.66
2022-09-26T22:41:09.082Z,99043.22
2022-09-26T22:44:11.476Z,99028.50
2022-09-26T22:47:13.859Z,99025.34
2022-09-26T22:50:16.242Z,99015.97
2022-09-26T22:53:18.606Z,99012.81
2022-09-26T22:56:20.958Z,98996.53
2022-09-26T22:59:23.467Z,98995.72
2022-09-26T23:02:25.864Z,99002.66
2022-09-26T23:05:28.186Z,98999.94
2022-09-26T23:08:32.376Z,98997.00
2022-09-26T23:11:34.881Z,99001.34
2022-09-26T23:14:37.368Z,99003.75
2022-09-26T23:17:39.781Z,98987.13
2022-09-26T23:20:43.408Z,98981.00
2022-09-26T23:23:47.828Z,98982.38
2022-09-26T23:26:50.628Z,98984.00
2022-09-26T23:29:53.952Z,98975.75
2022-09-26T23:32:56.495Z,98970.94
2022-09-26T23:35:59.931Z,98978.69
2022-09-26T23:39:02.285Z,98966.16
2022-09-26T23:42:07.265Z,98966.44
2022-09-26T23:45:10.265Z,98956.59
2022-09-26T23:48:12.503Z,98952.34
2022-09-26T23:51:14.886Z,98960.97
2022-09-26T23:54:17.140Z,98944.38
2022-09-26T23:57:20.875Z,98944.66
